OPO weather

Francisco de Sá Carneiro Airport
Porto, Oporto District, Portugal

Public forecast

Using degrees Celsius for public forecast. Weather courtesy of forecast.io.

Current aviation weather report (METAR) for Francisco de Sá Carneiro Airport

Retrieved 2019/11/14 22:30 UTC (24 minutes ago):

LPPR 142230Z 33010KT 9999 FEW020TCU 10/05 Q1010

Aviation forecast (TAF) for Francisco de Sá Carneiro Airport

Retrieved 2019/11/14 18:18 UTC (5 hours ago):

TAF LPPR 141700Z 1418/1518 32017KT 9999 SCT020 BKN030 TEMPO 1418/1422 32022G35KT 5000 SHRA BKN015 FEW025CB PROB40 TEMPO 1418/1421 32027G40KT 3000 TSRAGS BKN012 SCT018CB BECMG 1422/1424 35012KT PROB40 TEMPO 1422/1518 35017G27KT 8000 SHRA BKN015 FEW025TCU